Time;durP1;ratioP1;P1;durP2;ratioP2;P2;SDS_P1;SDS_P2;PMS_P1;PMS_P2;Temp;Humidity;BMP_temperature;BMP_pressure;BME280_temperature;BME280_humidity;BME280_pressure;Samples;Min_cycle;Max_cycle;Signal;HPM_P1;HPM_P2
2024/03/25 00:00:22;;;;;;;3.65;2.38;;;;;;;;;;5868371;28;20076;-67
2024/03/25 00:03:12;;;;;;;3.65;3.33;;;;;;;;;;5862173;28;20059;-67
2024/03/25 00:06:02;;;;;;;1.85;1.75;;;;;;;;;;5861849;28;20454;-67
2024/03/25 00:08:52;;;;;;;5.43;2.65;;;;;;;;;;5862343;28;20057;-68
2024/03/25 00:11:42;;;;;;;9.48;3.33;;;;;;;;;;5873979;28;20132;-68
2024/03/25 00:14:32;;;;;;;7.15;4.30;;;;;;;;;;5881947;28;20053;-68
2024/03/25 00:17:21;;;;;;;7.53;3.88;;;;;;;;;;5861950;28;20056;-67
2024/03/25 00:20:11;;;;;;;5.75;3.00;;;;;;;;;;5869999;28;20048;-68
2024/03/25 00:23:01;;;;;;;6.65;4.30;;;;;;;;;;5861598;28;20502;-68
2024/03/25 00:25:51;;;;;;;7.68;4.10;;;;;;;;;;5878054;28;20045;-67
2024/03/25 00:28:41;;;;;;;4.13;3.03;;;;;;;;;;5861605;28;20060;-67
2024/03/25 00:31:31;;;;;;;6.95;2.90;;;;;;;;;;5870588;28;20088;-68
2024/03/25 00:34:21;;;;;;;7.15;3.45;;;;;;;;;;5883093;28;20057;-68
2024/03/25 00:37:10;;;;;;;8.43;3.88;;;;;;;;;;5861737;28;20116;-67
2024/03/25 00:40:00;;;;;;;6.00;2.45;;;;;;;;;;5861299;28;20080;-67
2024/03/25 00:42:50;;;;;;;5.55;2.08;;;;;;;;;;5877901;28;20049;-68
2024/03/25 00:45:40;;;;;;;8.10;4.82;;;;;;;;;;5861341;28;20045;-67
2024/03/25 00:48:30;;;;;;;6.60;3.55;;;;;;;;;;5861421;28;20057;-68
2024/03/25 00:51:20;;;;;;;8.10;3.10;;;;;;;;;;5861003;28;20053;-68
2024/03/25 00:54:09;;;;;;;4.22;2.53;;;;;;;;;;5862170;28;20041;-68
2024/03/25 00:56:59;;;;;;;6.07;3.65;;;;;;;;;;5889481;28;20052;-68
2024/03/25 00:59:49;;;;;;;6.50;2.78;;;;;;;;;;5867196;28;20590;-68
2024/03/25 01:02:39;;;;;;;4.40;3.20;;;;;;;;;;5876388;28;20048;-68
2024/03/25 01:05:29;;;;;;;3.58;3.15;;;;;;;;;;5894955;28;20045;-68
2024/03/25 01:08:19;;;;;;;5.03;3.38;;;;;;;;;;5865742;28;20045;-67
2024/03/25 01:11:09;;;;;;;5.55;3.15;;;;;;;;;;5863113;28;20058;-68
2024/03/25 01:13:59;;;;;;;2.95;2.45;;;;;;;;;;5865979;28;20049;-67
2024/03/25 01:16:49;;;;;;;4.55;2.20;;;;;;;;;;5865439;28;20053;-68
2024/03/25 01:19:39;;;;;;;2.42;2.22;;;;;;;;;;5865448;28;20129;-68
2024/03/25 01:22:29;;;;;;;1.98;1.70;;;;;;;;;;5865129;28;20052;-67
2024/03/25 01:25:18;;;;;;;7.88;2.75;;;;;;;;;;5864990;28;20061;-68
2024/03/25 01:28:08;;;;;;;5.32;2.33;;;;;;;;;;5865480;28;20076;-68
2024/03/25 01:30:58;;;;;;;4.07;2.17;;;;;;;;;;5865438;28;20045;-68
2024/03/25 01:33:48;;;;;;;2.63;2.05;;;;;;;;;;5864649;28;20128;-68
2024/03/25 01:36:39;;;;;;;4.35;1.98;;;;;;;;;;5864818;28;20076;-68
2024/03/25 01:39:29;;;;;;;2.45;2.25;;;;;;;;;;5864668;28;20053;-68
2024/03/25 01:42:19;;;;;;;2.55;1.30;;;;;;;;;;5867736;28;20041;-68
2024/03/25 01:45:10;;;;;;;4.63;2.20;;;;;;;;;;5872602;28;20053;-68
2024/03/25 01:48:07;;;;;;;1.48;1.38;;;;;;;;;;5888837;28;20049;-67
2024/03/25 01:50:58;;;;;;;2.67;1.80;;;;;;;;;;5888185;28;20148;-67
2024/03/25 01:53:49;;;;;;;3.38;1.92;;;;;;;;;;5887683;28;20045;-68
2024/03/25 01:56:40;;;;;;;2.35;1.60;;;;;;;;;;5870873;28;20494;-68
2024/03/25 01:59:30;;;;;;;1.73;1.15;;;;;;;;;;5885400;28;20036;-68
2024/03/25 02:02:20;;;;;;;4.72;1.33;;;;;;;;;;5864416;28;20128;-68
2024/03/25 02:05:15;;;;;;;2.72;1.02;;;;;;;;;;5863829;28;20045;-68
2024/03/25 02:08:06;;;;;;;3.80;2.03;;;;;;;;;;5864589;28;20056;-68
2024/03/25 02:10:57;;;;;;;2.00;1.80;;;;;;;;;;5864233;28;20050;-68
2024/03/25 02:13:47;;;;;;;1.33;1.25;;;;;;;;;;5859886;28;20049;-67
2024/03/25 02:16:37;;;;;;;3.72;1.10;;;;;;;;;;5883692;28;20045;-67
2024/03/25 02:19:28;;;;;;;5.97;2.30;;;;;;;;;;5887510;28;20520;-68
2024/03/25 02:22:18;;;;;;;2.20;1.30;;;;;;;;;;5870632;28;20069;-67
2024/03/25 02:25:10;;;;;;;1.90;1.50;;;;;;;;;;5886675;28;20041;-68
2024/03/25 02:27:59;;;;;;;0.80;0.80;;;;;;;;;;5871332;28;20084;-67
2024/03/25 02:30:49;;;;;;;1.13;1.02;;;;;;;;;;5880344;28;20053;-67
2024/03/25 02:33:39;;;;;;;2.35;1.35;;;;;;;;;;5863288;28;20042;-68
2024/03/25 02:36:29;;;;;;;1.20;1.10;;;;;;;;;;5863724;28;20500;-67
2024/03/25 02:39:19;;;;;;;2.40;2.13;;;;;;;;;;5863334;28;20450;-68
2024/03/25 02:42:09;;;;;;;1.55;1.30;;;;;;;;;;5863472;28;20404;-68
2024/03/25 02:44:59;;;;;;;2.72;1.45;;;;;;;;;;5847466;28;20115;-68
2024/03/25 02:47:50;;;;;;;1.42;1.33;;;;;;;;;;5863583;28;20064;-68
2024/03/25 02:50:40;;;;;;;1.38;1.27;;;;;;;;;;5863403;28;20103;-68
2024/03/25 02:53:30;;;;;;;0.93;0.80;;;;;;;;;;5862969;28;20045;-68
2024/03/25 02:56:20;;;;;;;11.88;2.22;;;;;;;;;;5862915;28;20053;-68
2024/03/25 02:59:09;;;;;;;1.40;1.10;;;;;;;;;;5863477;28;20080;-68
2024/03/25 03:01:59;;;;;;;5.22;1.20;;;;;;;;;;5882305;28;20044;-68
2024/03/25 03:04:49;;;;;;;3.97;2.65;;;;;;;;;;5863016;28;20052;-67
2024/03/25 03:07:39;;;;;;;1.92;1.33;;;;;;;;;;5863183;28;20091;-67
2024/03/25 03:10:29;;;;;;;2.40;1.75;;;;;;;;;;5846160;28;20049;-67
2024/03/25 03:13:19;;;;;;;5.35;1.30;;;;;;;;;;5875225;28;20059;-68
2024/03/25 03:16:08;;;;;;;2.00;1.05;;;;;;;;;;5869395;28;20057;-68
2024/03/25 03:18:58;;;;;;;1.83;1.40;;;;;;;;;;5863248;28;20050;-67
2024/03/25 03:21:48;;;;;;;1.05;1.05;;;;;;;;;;5862600;28;20041;-68
2024/03/25 03:24:38;;;;;;;3.42;1.00;;;;;;;;;;5884304;28;20132;-68
2024/03/25 03:27:27;;;;;;;1.58;1.48;;;;;;;;;;5886027;28;20045;-68
2024/03/25 03:30:17;;;;;;;5.38;1.15;;;;;;;;;;5879107;28;20487;-68
2024/03/25 03:33:07;;;;;;;1.45;1.33;;;;;;;;;;5861974;28;20045;-68
2024/03/25 03:35:57;;;;;;;0.93;0.73;;;;;;;;;;5879610;28;20049;-68
2024/03/25 03:38:47;;;;;;;6.00;0.93;;;;;;;;;;5862597;28;20057;-68
2024/03/25 03:41:36;;;;;;;1.73;1.40;;;;;;;;;;5876255;28;20503;-68
2024/03/25 03:44:26;;;;;;;1.85;1.08;;;;;;;;;;5881074;28;20049;-68
2024/03/25 03:47:16;;;;;;;1.23;1.15;;;;;;;;;;5885595;28;20049;-68
2024/03/25 03:50:07;;;;;;;1.77;0.77;;;;;;;;;;5878852;28;20050;-68
2024/03/25 03:52:57;;;;;;;0.70;0.70;;;;;;;;;;5862340;28;20042;-68
2024/03/25 03:55:57;;;;;;;5.97;0.98;;;;;;;;;;5861544;28;20453;-68
2024/03/25 03:58:47;;;;;;;0.63;0.63;;;;;;;;;;5862132;28;20417;-68
2024/03/25 04:01:37;;;;;;;1.83;0.93;;;;;;;;;;5874858;28;20041;-68
2024/03/25 04:04:27;;;;;;;6.18;1.50;;;;;;;;;;5878702;28;20037;-68
2024/03/25 04:07:17;;;;;;;1.00;0.95;;;;;;;;;;5880706;28;20166;-68
2024/03/25 04:10:07;;;;;;;0.50;0.50;;;;;;;;;;5875085;28;20100;-68
2024/03/25 04:12:57;;;;;;;1.15;0.95;;;;;;;;;;5860373;28;20509;-68
2024/03/25 04:15:47;;;;;;;1.63;1.33;;;;;;;;;;5860468;28;20093;-68
2024/03/25 04:18:36;;;;;;;0.80;0.80;;;;;;;;;;5861624;28;20049;-68
2024/03/25 04:21:26;;;;;;;1.17;1.02;;;;;;;;;;5880173;28;20554;-68
2024/03/25 04:24:17;;;;;;;0.90;0.90;;;;;;;;;;5870011;28;20049;-68
2024/03/25 04:27:07;;;;;;;1.50;0.98;;;;;;;;;;5861445;28;20049;-68
2024/03/25 04:29:57;;;;;;;2.28;1.50;;;;;;;;;;5861781;28;20052;-68
2024/03/25 04:32:47;;;;;;;12.70;1.13;;;;;;;;;;5860977;28;20371;-68
2024/03/25 04:35:36;;;;;;;1.48;0.93;;;;;;;;;;5861367;28;20046;-68
2024/03/25 04:38:26;;;;;;;0.60;0.60;;;;;;;;;;5861570;28;20502;-68
2024/03/25 04:41:16;;;;;;;0.80;0.80;;;;;;;;;;5844620;28;20045;-68
2024/03/25 04:44:06;;;;;;;1.10;1.00;;;;;;;;;;5859708;28;20053;-68
2024/03/25 04:46:56;;;;;;;1.17;1.08;;;;;;;;;;5859553;28;20057;-68
2024/03/25 04:49:46;;;;;;;1.70;1.23;;;;;;;;;;5860896;28;20053;-68
2024/03/25 04:52:36;;;;;;;1.65;1.00;;;;;;;;;;5859598;28;20045;-68
2024/03/25 04:55:31;;;;;;;0.95;0.85;;;;;;;;;;5860833;28;20136;-68
2024/03/25 04:58:21;;;;;;;1.42;1.30;;;;;;;;;;5860712;28;20056;-68
2024/03/25 05:01:11;;;;;;;2.42;1.48;;;;;;;;;;5860340;28;20128;-68
2024/03/25 05:04:00;;;;;;;0.50;0.50;;;;;;;;;;5860561;28;20096;-68
2024/03/25 05:06:50;;;;;;;1.40;1.30;;;;;;;;;;5860898;28;20103;-68
2024/03/25 05:09:40;;;;;;;0.70;0.70;;;;;;;;;;5860359;28;20128;-68
2024/03/25 05:12:30;;;;;;;1.50;0.90;;;;;;;;;;5860506;28;20057;-68
2024/03/25 05:15:20;;;;;;;0.90;0.82;;;;;;;;;;5860514;28;20371;-68
2024/03/25 05:18:09;;;;;;;0.77;0.77;;;;;;;;;;5860376;28;20050;-68
2024/03/25 05:20:59;;;;;;;1.08;0.93;;;;;;;;;;5860843;28;20125;-68
2024/03/25 05:23:49;;;;;;;1.10;0.82;;;;;;;;;;5860363;28;20046;-68
2024/03/25 05:26:38;;;;;;;1.67;0.95;;;;;;;;;;5860148;28;20411;-68
2024/03/25 05:29:28;;;;;;;2.65;1.70;;;;;;;;;;5860432;28;20052;-68
2024/03/25 05:32:21;;;;;;;0.82;0.70;;;;;;;;;;5859858;28;20457;-68
2024/03/25 05:35:11;;;;;;;0.93;0.68;;;;;;;;;;5860176;28;20083;-68
2024/03/25 05:38:03;;;;;;;1.15;1.10;;;;;;;;;;5860092;28;20041;-68
2024/03/25 05:40:52;;;;;;;2.28;1.50;;;;;;;;;;5862795;28;20060;-68
2024/03/25 05:43:42;;;;;;;1.83;0.98;;;;;;;;;;5864194;28;20053;-68
2024/03/25 05:46:32;;;;;;;1.52;1.00;;;;;;;;;;5859824;28;20048;-68
2024/03/25 05:49:22;;;;;;;0.98;0.88;;;;;;;;;;5864357;28;20041;-68
2024/03/25 05:52:11;;;;;;;1.20;1.10;;;;;;;;;;5863964;28;20049;-68
2024/03/25 05:55:01;;;;;;;0.60;0.60;;;;;;;;;;5863838;28;20376;-68
2024/03/25 05:57:51;;;;;;;0.70;0.70;;;;;;;;;;5864637;28;20046;-68
2024/03/25 06:00:41;;;;;;;1.27;1.17;;;;;;;;;;5863828;28;20068;-68
2024/03/25 06:03:31;;;;;;;0.50;0.50;;;;;;;;;;5863957;28;20045;-68
2024/03/25 06:06:20;;;;;;;1.33;0.80;;;;;;;;;;5864035;28;20069;-69
2024/03/25 06:09:10;;;;;;;3.72;1.33;;;;;;;;;;5847236;28;20467;-68
2024/03/25 06:12:00;;;;;;;0.88;0.88;;;;;;;;;;5864162;28;20499;-69
2024/03/25 06:14:50;;;;;;;0.47;0.45;;;;;;;;;;5863767;28;20045;-69
2024/03/25 06:17:39;;;;;;;0.80;0.80;;;;;;;;;;5863443;28;20045;-69
2024/03/25 06:20:29;;;;;;;13.45;1.08;;;;;;;;;;5863588;28;20414;-69
2024/03/25 06:23:24;;;;;;;0.85;0.85;;;;;;;;;;5863612;28;20046;-69
2024/03/25 06:26:14;;;;;;;0.35;0.35;;;;;;;;;;5863366;28;20045;-69
2024/03/25 06:29:03;;;;;;;0.77;0.77;;;;;;;;;;5863357;28;20052;-69
2024/03/25 06:35:02;;;;;;;1.40;1.30;;;;;;;;;;5862906;28;20050;-70
2024/03/25 06:37:52;;;;;;;1.95;0.95;;;;;;;;;;5863401;28;20291;-70
2024/03/25 06:40:41;;;;;;;0.63;0.63;;;;;;;;;;5862968;28;20049;-70
2024/03/25 06:43:31;;;;;;;2.67;1.83;;;;;;;;;;5863178;28;20061;-70
2024/03/25 06:46:21;;;;;;;1.00;0.93;;;;;;;;;;5862790;28;20530;-70
2024/03/25 06:49:11;;;;;;;1.40;1.30;;;;;;;;;;5863094;28;20062;-71
2024/03/25 06:52:01;;;;;;;0.50;0.50;;;;;;;;;;5863186;28;20053;-71
2024/03/25 06:54:50;;;;;;;1.65;1.33;;;;;;;;;;5863153;28;20152;-71
2024/03/25 06:57:40;;;;;;;2.05;1.40;;;;;;;;;;5862793;28;20045;-72
2024/03/25 07:00:30;;;;;;;6.00;5.40;;;;;;;;;;5862781;28;20384;-72
2024/03/25 07:03:22;;;;;;;9.75;4.15;;;;;;;;;;5862635;28;20069;-72
2024/03/25 07:06:11;;;;;;;2.92;2.20;;;;;;;;;;5862471;28;20061;-73
2024/03/25 07:09:01;;;;;;;2.50;2.08;;;;;;;;;;5862646;28;20080;-72
2024/03/25 07:11:51;;;;;;;1.52;1.42;;;;;;;;;;5862957;28;20053;-73
2024/03/25 07:14:41;;;;;;;1.60;1.17;;;;;;;;;;5862363;28;20053;-73
2024/03/25 07:17:30;;;;;;;0.93;0.88;;;;;;;;;;5862336;28;20041;-73
2024/03/25 07:20:22;;;;;;;2.13;1.40;;;;;;;;;;5862244;28;20060;-72
2024/03/25 07:23:12;;;;;;;1.52;1.23;;;;;;;;;;5862230;28;20068;-73
2024/03/25 07:26:03;;;;;;;0.70;0.70;;;;;;;;;;5862332;28;20045;-72
2024/03/25 07:28:53;;;;;;;2.53;1.35;;;;;;;;;;5862596;28;20052;-73
2024/03/25 07:31:42;;;;;;;1.77;1.52;;;;;;;;;;5861763;28;20045;-73
2024/03/25 07:34:32;;;;;;;2.92;1.27;;;;;;;;;;5861862;28;20037;-73
2024/03/25 07:37:22;;;;;;;2.67;1.00;;;;;;;;;;5861793;28;20045;-73
2024/03/25 07:40:12;;;;;;;0.88;0.88;;;;;;;;;;5861799;28;20049;-72
2024/03/25 07:43:01;;;;;;;0.95;0.93;;;;;;;;;;5861328;28;20529;-72
2024/03/25 07:45:51;;;;;;;2.15;1.67;;;;;;;;;;5862322;28;20081;-73
2024/03/25 07:48:42;;;;;;;3.28;2.03;;;;;;;;;;5861539;28;20049;-73
2024/03/25 07:51:31;;;;;;;9.63;6.65;;;;;;;;;;5861552;28;20049;-73
2024/03/25 07:54:21;;;;;;;10.57;5.55;;;;;;;;;;5861522;28;20076;-73
2024/03/25 07:57:11;;;;;;;9.32;4.05;;;;;;;;;;5861245;28;20075;-71
2024/03/25 08:00:01;;;;;;;3.88;2.97;;;;;;;;;;5862019;28;20186;-73
2024/03/25 08:02:51;;;;;;;5.20;2.95;;;;;;;;;;5860927;28;20045;-72
2024/03/25 08:05:40;;;;;;;6.90;3.33;;;;;;;;;;5861337;28;20069;-73
2024/03/25 08:08:30;;;;;;;1.83;1.73;;;;;;;;;;5861260;28;20049;-72
2024/03/25 08:11:21;;;;;;;2.72;1.80;;;;;;;;;;5861372;28;20060;-73
2024/03/25 08:14:10;;;;;;;1.50;1.40;;;;;;;;;;5861079;28;20053;-72
2024/03/25 08:17:00;;;;;;;2.10;1.38;;;;;;;;;;5845324;28;20084;-72
2024/03/25 08:19:50;;;;;;;2.17;1.98;;;;;;;;;;5861400;28;20561;-72
2024/03/25 08:22:40;;;;;;;1.77;1.67;;;;;;;;;;5860813;28;20049;-72
2024/03/25 08:25:29;;;;;;;1.75;1.60;;;;;;;;;;5860985;28;20049;-73
2024/03/25 08:28:19;;;;;;;1.67;1.38;;;;;;;;;;5861213;28;20045;-73
2024/03/25 08:31:09;;;;;;;1.88;1.75;;;;;;;;;;5860879;28;20525;-72
2024/03/25 08:33:59;;;;;;;5.05;2.95;;;;;;;;;;5861238;28;20128;-73
2024/03/25 08:36:48;;;;;;;3.75;3.15;;;;;;;;;;5860827;28;20057;-73
2024/03/25 08:39:38;;;;;;;3.65;2.35;;;;;;;;;;5860908;28;20045;-73
2024/03/25 08:42:28;;;;;;;3.35;1.95;;;;;;;;;;5860918;28;20049;-72
2024/03/25 08:45:18;;;;;;;3.28;1.70;;;;;;;;;;5860728;28;20053;-72
2024/03/25 08:48:07;;;;;;;5.32;3.20;;;;;;;;;;5844180;28;20580;-72
2024/03/25 08:50:57;;;;;;;2.72;2.42;;;;;;;;;;5861099;28;20080;-73
2024/03/25 08:53:47;;;;;;;2.40;1.70;;;;;;;;;;5860452;28;20049;-72
2024/03/25 08:56:37;;;;;;;4.78;2.78;;;;;;;;;;5860506;28;20041;-72
2024/03/25 08:59:27;;;;;;;5.93;4.97;;;;;;;;;;5860599;28;20049;-72
2024/03/25 09:02:17;;;;;;;7.47;3.25;;;;;;;;;;5860327;28;20042;-72
2024/03/25 09:05:08;;;;;;;5.78;2.03;;;;;;;;;;5844158;28;20423;-74
2024/03/25 09:07:58;;;;;;;2.00;1.70;;;;;;;;;;5861052;28;20053;-76
2024/03/25 09:11:03;;;;;;;2.40;1.67;;;;;;;;;;5860354;28;20131;-75
2024/03/25 09:13:53;;;;;;;1.23;1.13;;;;;;;;;;5860405;28;20114;-74
2024/03/25 09:16:43;;;;;;;1.95;1.35;;;;;;;;;;5864084;28;20049;-74
2024/03/25 09:19:32;;;;;;;5.32;3.13;;;;;;;;;;5864810;28;20433;-74
2024/03/25 09:22:23;;;;;;;3.25;2.95;;;;;;;;;;5864742;28;20056;-74
2024/03/25 09:25:13;;;;;;;3.05;2.72;;;;;;;;;;5864555;28;20052;-73
2024/03/25 09:28:03;;;;;;;2.47;1.77;;;;;;;;;;5864674;28;20053;-72
2024/03/25 09:30:53;;;;;;;2.33;1.95;;;;;;;;;;5848437;28;20115;-73
2024/03/25 09:33:43;;;;;;;2.17;2.05;;;;;;;;;;5864288;28;20438;-73
2024/03/25 09:36:33;;;;;;;10.80;6.40;;;;;;;;;;5864313;28;20053;-73
2024/03/25 09:39:23;;;;;;;3.15;2.22;;;;;;;;;;5864519;28;20119;-73
2024/03/25 09:42:18;;;;;;;3.10;2.40;;;;;;;;;;5864021;28;20053;-72
2024/03/25 09:45:09;;;;;;;9.48;3.33;;;;;;;;;;5864108;28;20052;-72
2024/03/25 09:47:59;;;;;;;2.70;2.38;;;;;;;;;;5848174;28;20045;-73
2024/03/25 09:50:49;;;;;;;3.25;2.03;;;;;;;;;;5863706;28;20072;-73
2024/03/25 09:53:39;;;;;;;2.55;2.03;;;;;;;;;;5847234;28;20045;-73
2024/03/25 09:56:29;;;;;;;1.52;1.38;;;;;;;;;;5863826;28;20186;-72
2024/03/25 09:59:19;;;;;;;13.20;5.72;;;;;;;;;;5856332;28;20053;-72
2024/03/25 10:02:11;;;;;;;14.27;8.50;;;;;;;;;;5863735;28;20045;-73
2024/03/25 10:05:02;;;;;;;3.53;2.95;;;;;;;;;;5847562;28;20049;-72
2024/03/25 10:07:53;;;;;;;5.22;3.22;;;;;;;;;;5847713;28;20069;-73
2024/03/25 10:10:44;;;;;;;3.53;3.17;;;;;;;;;;5863614;28;20068;-72
2024/03/25 10:13:34;;;;;;;3.55;2.70;;;;;;;;;;5863361;28;20092;-72
2024/03/25 10:16:23;;;;;;;6.35;2.95;;;;;;;;;;5863762;28;20077;-72
2024/03/25 10:19:13;;;;;;;1.70;1.30;;;;;;;;;;5863337;28;20064;-73
2024/03/25 10:22:06;;;;;;;1.38;1.27;;;;;;;;;;5863608;28;20050;-73
2024/03/25 10:24:55;;;;;;;2.65;1.48;;;;;;;;;;5864051;28;20053;-72
2024/03/25 10:28:02;;;;;;;1.00;0.93;;;;;;;;;;5862954;28;20087;-72
2024/03/25 10:30:52;;;;;;;1.80;1.05;;;;;;;;;;5863257;28;20060;-72
2024/03/25 10:33:42;;;;;;;2.28;1.50;;;;;;;;;;5862842;28;20409;-72
2024/03/25 10:36:32;;;;;;;1.67;1.13;;;;;;;;;;5863381;28;20041;-72
2024/03/25 10:39:27;;;;;;;2.75;2.45;;;;;;;;;;5846624;28;20519;-72
2024/03/25 10:42:21;;;;;;;0.60;0.60;;;;;;;;;;5862946;28;20053;-74
2024/03/25 10:45:10;;;;;;;1.58;1.33;;;;;;;;;;5863133;28;20518;-74
2024/03/25 10:48:16;;;;;;;1.08;0.43;;;;;;;;;;5863182;28;20049;-72
2024/03/25 10:51:10;;;;;;;0.63;0.63;;;;;;;;;;5862890;28;20045;-74
2024/03/25 10:54:01;;;;;;;0.30;0.30;;;;;;;;;;5846793;28;20045;-74
2024/03/25 10:56:51;;;;;;;0.45;0.40;;;;;;;;;;5862983;28;20123;-74
2024/03/25 10:59:45;;;;;;;0.38;0.38;;;;;;;;;;5862558;28;20057;-73
2024/03/25 11:02:35;;;;;;;0.57;0.50;;;;;;;;;;5862359;28;20045;-73
2024/03/25 11:05:25;;;;;;;0.93;0.82;;;;;;;;;;5862657;28;20047;-73
2024/03/25 11:08:17;;;;;;;0.40;0.40;;;;;;;;;;5862403;28;20064;-73
2024/03/25 11:11:06;;;;;;;1.08;0.98;;;;;;;;;;5862412;28;20080;-72
2024/03/25 11:13:56;;;;;;;3.03;0.55;;;;;;;;;;5846379;28;20081;-73
2024/03/25 11:16:55;;;;;;;1.23;1.13;;;;;;;;;;5861846;28;20057;-72
2024/03/25 11:19:45;;;;;;;2.42;0.55;;;;;;;;;;5862323;28;20053;-72
2024/03/25 11:22:36;;;;;;;1.00;1.00;;;;;;;;;;5845653;28;20045;-72
2024/03/25 11:25:30;;;;;;;0.40;0.40;;;;;;;;;;5862010;28;21054;-73
2024/03/25 11:28:28;;;;;;;0.68;0.43;;;;;;;;;;5862663;28;20444;-72
2024/03/25 11:31:20;;;;;;;0.32;0.32;;;;;;;;;;5862114;28;20060;-73
2024/03/25 11:34:10;;;;;;;0.73;0.73;;;;;;;;;;5861689;28;20042;-72
2024/03/25 11:37:00;;;;;;;0.50;0.50;;;;;;;;;;5861725;28;20400;-72
2024/03/25 11:40:00;;;;;;;0.50;0.50;;;;;;;;;;5861549;28;20045;-72
2024/03/25 11:42:50;;;;;;;4.78;1.05;;;;;;;;;;5878312;28;20050;-72
2024/03/25 11:45:39;;;;;;;4.55;1.05;;;;;;;;;;5861480;28;20095;-71
2024/03/25 11:48:30;;;;;;;0.30;0.30;;;;;;;;;;5845210;28;20049;-72
2024/03/25 11:51:20;;;;;;;6.20;1.92;;;;;;;;;;5861576;28;20508;-71
2024/03/25 11:54:10;;;;;;;2.72;1.50;;;;;;;;;;5861389;28;20049;-71
2024/03/25 11:57:01;;;;;;;2.33;1.98;;;;;;;;;;5861995;28;20104;-71
2024/03/25 11:59:51;;;;;;;1.38;1.23;;;;;;;;;;5861748;28;20048;-72
2024/03/25 12:02:45;;;;;;;1.15;1.05;;;;;;;;;;5845006;28;20057;-74
2024/03/25 12:05:35;;;;;;;0.50;0.50;;;;;;;;;;5861401;28;20132;-72
2024/03/25 12:08:26;;;;;;;3.30;0.98;;;;;;;;;;5861213;28;20045;-72
2024/03/25 12:11:19;;;;;;;1.63;1.05;;;;;;;;;;5844793;28;20534;-72
2024/03/25 12:14:08;;;;;;;0.80;0.80;;;;;;;;;;5860727;28;20061;-72
2024/03/25 12:16:58;;;;;;;1.35;1.25;;;;;;;;;;5861557;28;20108;-72
2024/03/25 12:20:09;;;;;;;1.10;1.00;;;;;;;;;;5860904;28;20431;-71
2024/03/25 12:23:01;;;;;;;1.13;0.75;;;;;;;;;;5861156;28;20494;-72
2024/03/25 12:25:51;;;;;;;1.73;1.48;;;;;;;;;;5861417;28;20038;-73
2024/03/25 12:28:40;;;;;;;1.70;1.10;;;;;;;;;;5844522;28;20103;-73
2024/03/25 12:31:30;;;;;;;0.90;0.90;;;;;;;;;;5860880;28;20073;-72
2024/03/25 12:34:20;;;;;;;1.05;0.90;;;;;;;;;;5860703;28;20135;-72
2024/03/25 12:37:15;;;;;;;0.93;0.88;;;;;;;;;;5860769;28;20056;-72
2024/03/25 12:40:08;;;;;;;3.67;2.83;;;;;;;;;;5860351;28;20053;-72
2024/03/25 12:42:57;;;;;;;2.45;1.92;;;;;;;;;;5860892;28;20052;-72
2024/03/25 12:45:47;;;;;;;4.55;3.05;;;;;;;;;;5860498;28;20045;-72
2024/03/25 12:48:38;;;;;;;8.75;3.45;;;;;;;;;;5844777;28;20041;-73
2024/03/25 12:51:27;;;;;;;3.35;3.05;;;;;;;;;;5865540;28;20419;-73
2024/03/25 12:54:17;;;;;;;2.50;2.20;;;;;;;;;;5865318;28;20068;-73
2024/03/25 12:57:08;;;;;;;3.47;2.97;;;;;;;;;;5865437;28;20050;-73
2024/03/25 12:59:57;;;;;;;9.63;5.45;;;;;;;;;;5865654;28;20053;-74
2024/03/25 13:02:50;;;;;;;1.02;0.93;;;;;;;;;;5865366;28;20115;-77
2024/03/25 13:05:40;;;;;;;0.35;0.35;;;;;;;;;;5864998;28;20051;-75
2024/03/25 13:08:30;;;;;;;10.15;9.07;;;;;;;;;;5862158;28;20057;-73
2024/03/25 13:11:20;;;;;;;6.68;4.85;;;;;;;;;;5902248;28;20044;-72
2024/03/25 13:14:12;;;;;;;4.43;3.13;;;;;;;;;;5888211;28;20387;-72
2024/03/25 13:17:02;;;;;;;1.27;1.17;;;;;;;;;;5888776;28;20048;-72
2024/03/25 13:19:52;;;;;;;1.15;1.00;;;;;;;;;;5872254;28;20053;-72
2024/03/25 13:22:44;;;;;;;4.65;2.95;;;;;;;;;;5888140;28;20061;-71
2024/03/25 13:25:34;;;;;;;3.47;1.33;;;;;;;;;;5888342;28;20045;-71
2024/03/25 13:28:24;;;;;;;0.90;0.90;;;;;;;;;;5888269;28;20616;-71
2024/03/25 13:31:13;;;;;;;0.73;0.73;;;;;;;;;;5888018;28;20120;-72
2024/03/25 13:34:03;;;;;;;0.43;0.43;;;;;;;;;;5888267;28;20127;-74
2024/03/25 13:36:55;;;;;;;1.25;0.88;;;;;;;;;;5888858;28;20102;-76
2024/03/25 13:39:49;;;;;;;0.40;0.40;;;;;;;;;;5886959;28;20056;-76
2024/03/25 13:42:39;;;;;;;0.20;0.20;;;;;;;;;;5881241;28;20513;-75
2024/03/25 13:45:29;;;;;;;1.13;1.02;;;;;;;;;;5882818;28;20410;-73
2024/03/25 13:48:19;;;;;;;2.15;0.60;;;;;;;;;;5887564;28;20136;-73
2024/03/25 13:51:09;;;;;;;1.63;1.27;;;;;;;;;;5885401;28;20163;-73
2024/03/25 13:53:58;;;;;;;6.07;3.58;;;;;;;;;;5885198;28;20044;-73
2024/03/25 13:56:48;;;;;;;1.48;1.30;;;;;;;;;;5887073;28;20067;-73
2024/03/25 13:59:38;;;;;;;0.50;0.50;;;;;;;;;;5880970;28;20507;-72
2024/03/25 14:02:28;;;;;;;1.13;0.98;;;;;;;;;;5875454;28;20106;-72
2024/03/25 14:05:18;;;;;;;2.70;1.45;;;;;;;;;;5887639;28;20379;-72
2024/03/25 14:08:09;;;;;;;1.70;1.48;;;;;;;;;;5887657;28;20041;-72
2024/03/25 14:11:01;;;;;;;2.55;2.35;;;;;;;;;;5887736;28;20048;-72
2024/03/25 14:13:51;;;;;;;1.70;1.30;;;;;;;;;;5881137;28;20045;-72
2024/03/25 14:16:41;;;;;;;2.10;1.75;;;;;;;;;;5864342;28;20107;-72
2024/03/25 14:19:30;;;;;;;4.80;2.35;;;;;;;;;;5864130;28;20045;-72
2024/03/25 14:22:20;;;;;;;3.95;3.08;;;;;;;;;;5861828;28;20502;-71
2024/03/25 14:25:10;;;;;;;7.28;3.22;;;;;;;;;;5862475;28;20441;-72
2024/03/25 14:28:00;;;;;;;2.80;1.73;;;;;;;;;;5863836;28;20132;-72
2024/03/25 14:30:49;;;;;;;2.88;2.28;;;;;;;;;;5863392;28;20128;-72
2024/03/25 14:33:39;;;;;;;2.65;1.90;;;;;;;;;;5862744;28;20037;-72
2024/03/25 14:36:29;;;;;;;3.55;1.92;;;;;;;;;;5863212;28;20521;-72
2024/03/25 14:39:19;;;;;;;1.50;1.40;;;;;;;;;;5863335;28;20103;-71
2024/03/25 14:42:09;;;;;;;2.22;1.15;;;;;;;;;;5862986;28;20415;-71
2024/03/25 14:44:59;;;;;;;3.20;1.48;;;;;;;;;;5847107;28;20049;-72
2024/03/25 14:47:49;;;;;;;3.47;1.52;;;;;;;;;;5862959;28;20060;-72
2024/03/25 14:50:39;;;;;;;1.55;0.95;;;;;;;;;;5862845;28;20410;-71
2024/03/25 14:53:28;;;;;;;0.60;0.60;;;;;;;;;;5846266;28;20115;-71
2024/03/25 14:56:18;;;;;;;3.80;1.08;;;;;;;;;;5862686;28;20053;-72
2024/03/25 14:59:08;;;;;;;1.25;1.02;;;;;;;;;;5862569;28;20045;-71
2024/03/25 15:02:00;;;;;;;0.95;0.88;;;;;;;;;;5863110;28;20054;-72
2024/03/25 15:04:52;;;;;;;2.80;1.58;;;;;;;;;;5879455;28;20046;-72
2024/03/25 15:07:42;;;;;;;1.30;0.65;;;;;;;;;;5862183;28;20470;-72
2024/03/25 15:10:35;;;;;;;2.92;1.60;;;;;;;;;;5862745;28;20065;-71
2024/03/25 15:13:25;;;;;;;2.95;2.05;;;;;;;;;;5861275;28;20557;-72
2024/03/25 15:16:14;;;;;;;10.65;6.07;;;;;;;;;;5862280;28;20467;-72
2024/03/25 15:19:04;;;;;;;14.52;7.50;;;;;;;;;;5862287;28;20196;-72
2024/03/25 15:21:54;;;;;;;8.40;3.63;;;;;;;;;;5879060;28;20075;-72
2024/03/25 15:24:44;;;;;;;18.98;7.57;;;;;;;;;;5845566;28;20042;-72
2024/03/25 15:27:34;;;;;;;13.40;4.90;;;;;;;;;;5845572;28;20120;-72
2024/03/25 15:30:24;;;;;;;4.07;2.55;;;;;;;;;;5862068;28;20045;-72
2024/03/25 15:33:14;;;;;;;2.95;2.35;;;;;;;;;;5861656;28;20056;-72
2024/03/25 15:36:04;;;;;;;6.90;3.67;;;;;;;;;;5861583;28;20107;-72
2024/03/25 15:38:54;;;;;;;12.90;7.68;;;;;;;;;;5862240;28;20049;-72
2024/03/25 15:41:44;;;;;;;5.75;5.05;;;;;;;;;;5861315;28;20049;-72
2024/03/25 15:44:33;;;;;;;1.40;1.30;;;;;;;;;;5861734;28;20049;-73
2024/03/25 15:47:23;;;;;;;1.65;1.05;;;;;;;;;;5861772;28;20049;-73
2024/03/25 15:50:13;;;;;;;2.28;0.77;;;;;;;;;;5861471;28;20050;-73
2024/03/25 15:53:03;;;;;;;1.08;0.90;;;;;;;;;;5861694;28;20045;-73
2024/03/25 15:55:53;;;;;;;2.90;2.10;;;;;;;;;;5845821;28;20045;-73
2024/03/25 15:58:43;;;;;;;6.03;3.00;;;;;;;;;;5861318;28;20132;-75
2024/03/25 16:01:33;;;;;;;6.68;4.50;;;;;;;;;;5845279;28;20045;-76
2024/03/25 16:04:23;;;;;;;4.35;2.83;;;;;;;;;;5861511;28;20042;-76
2024/03/25 16:07:13;;;;;;;8.68;4.28;;;;;;;;;;5861281;28;20149;-75
2024/03/25 16:10:03;;;;;;;4.00;3.33;;;;;;;;;;5861158;28;20088;-75
2024/03/25 16:12:58;;;;;;;1.48;1.38;;;;;;;;;;5861607;28;20084;-75
2024/03/25 16:16:03;;;;;;;2.17;0.90;;;;;;;;;;5861323;28;20049;-74
2024/03/25 16:18:53;;;;;;;1.63;1.48;;;;;;;;;;5861011;28;20064;-74
2024/03/25 16:21:42;;;;;;;5.13;1.67;;;;;;;;;;5860668;28;20053;-74
2024/03/25 16:24:32;;;;;;;1.40;1.30;;;;;;;;;;5860602;28;20091;-73
2024/03/25 16:27:22;;;;;;;2.28;1.25;;;;;;;;;;5860764;28;20037;-73
2024/03/25 16:30:12;;;;;;;1.92;1.30;;;;;;;;;;5860586;28;20057;-73
2024/03/25 16:33:02;;;;;;;3.58;3.28;;;;;;;;;;5860384;28;20053;-72
2024/03/25 16:35:53;;;;;;;4.28;3.88;;;;;;;;;;5861086;28;20585;-73
2024/03/25 16:38:43;;;;;;;3.78;3.30;;;;;;;;;;5860476;28;20461;-73
2024/03/25 16:41:33;;;;;;;8.05;3.08;;;;;;;;;;5860649;28;20046;-73
2024/03/25 16:44:22;;;;;;;3.63;3.17;;;;;;;;;;5860645;28;20046;-73
2024/03/25 16:47:12;;;;;;;9.20;3.45;;;;;;;;;;5860526;28;20049;-73
2024/03/25 16:50:04;;;;;;;7.70;3.85;;;;;;;;;;5860631;28;20045;-73
2024/03/25 16:52:54;;;;;;;5.43;3.22;;;;;;;;;;5844546;28;20046;-72
2024/03/25 16:55:43;;;;;;;2.33;2.13;;;;;;;;;;5860234;28;20603;-72
2024/03/25 16:58:34;;;;;;;2.42;2.20;;;;;;;;;;5860170;28;20049;-73
2024/03/25 17:01:24;;;;;;;7.82;4.55;;;;;;;;;;5844082;28;20045;-72
2024/03/25 17:04:16;;;;;;;7.15;5.50;;;;;;;;;;5860223;28;20037;-72